createdAt,value
2023-03-04T00:02:06.108Z,0.10
2023-03-04T00:04:34.575Z,0.13
2023-03-04T00:07:02.955Z,0.18
2023-03-04T00:09:31.617Z,0.21
2023-03-04T00:12:00.139Z,0.23
2023-03-04T00:14:30.578Z,0.23
2023-03-04T00:16:58.970Z,0.21
2023-03-04T00:19:27.443Z,0.18
2023-03-04T00:21:59.226Z,0.17
2023-03-04T00:24:28.169Z,0.20
2023-03-04T00:26:57.093Z,0.16
2023-03-04T00:29:25.926Z,0.15
2023-03-04T00:31:56.313Z,0.16
2023-03-04T00:34:24.827Z,0.12
2023-03-04T00:36:53.643Z,0.04
2023-03-04T00:39:22.227Z,0.02
2023-03-04T00:41:50.785Z,-0.02
2023-03-04T00:44:19.463Z,-0.02
2023-03-04T00:46:48.372Z,-0.01
2023-03-04T00:49:18.080Z,-0.01
2023-03-04T00:51:46.794Z,0.02
2023-03-04T00:54:15.616Z,0.00
2023-03-04T00:56:44.033Z,-0.04
2023-03-04T00:59:12.374Z,-0.15
2023-03-04T01:01:41.156Z,-0.07
2023-03-04T01:04:09.771Z,-0.08
2023-03-04T01:06:39.729Z,-0.06
2023-03-04T01:09:08.790Z,-0.19
2023-03-04T01:11:37.303Z,-0.07
2023-03-04T01:14:05.782Z,-0.08
2023-03-04T01:16:34.828Z,-0.08
2023-03-04T01:19:03.632Z,-0.09
2023-03-04T01:21:32.467Z,-0.12
2023-03-04T01:24:02.701Z,-0.16
2023-03-04T01:26:31.553Z,-0.20
2023-03-04T01:28:59.984Z,-0.18
2023-03-04T01:31:28.586Z,-0.19
2023-03-04T01:33:57.349Z,-0.32
2023-03-04T01:39:28.814Z,-0.41
2023-03-04T01:41:57.751Z,-0.42
2023-03-04T01:44:26.482Z,-0.40
2023-03-04T01:46:56.166Z,-0.38
2023-03-04T01:49:24.722Z,-0.41
2023-03-04T01:51:55.236Z,-0.42
2023-03-04T01:54:26.739Z,-0.46
2023-03-04T01:56:57.190Z,-0.48
2023-03-04T01:59:26.685Z,-0.48
2023-03-04T02:01:56.771Z,-0.49
2023-03-04T02:04:29.363Z,-0.52
2023-03-04T02:06:58.317Z,-0.58
2023-03-04T02:09:26.950Z,-0.61
2023-03-04T02:11:57.271Z,-0.61
2023-03-04T02:14:25.933Z,-0.59
2023-03-04T02:16:54.473Z,-0.59
2023-03-04T02:19:32.940Z,-0.60
2023-03-04T02:22:01.618Z,-0.58
2023-03-04T02:24:33.062Z,-0.58
2023-03-04T02:27:04.599Z,-0.60
2023-03-04T02:29:33.260Z,-0.60
2023-03-04T02:32:04.267Z,-0.64
2023-03-04T02:34:35.043Z,-0.63
2023-03-04T02:37:04.399Z,-0.62
2023-03-04T02:39:36.092Z,-0.60
2023-03-04T02:45:44.072Z,-0.66
2023-03-04T02:48:14.399Z,-0.73
2023-03-04T02:50:45.074Z,-0.78
2023-03-04T02:53:13.855Z,-0.82
2023-03-04T02:55:42.699Z,-0.81
2023-03-04T02:58:16.102Z,-0.82
2023-03-04T03:00:47.657Z,-0.81
2023-03-04T03:03:16.124Z,-0.83
2023-03-04T03:05:44.826Z,-0.86
2023-03-04T03:08:13.479Z,-0.90
2023-03-04T03:10:44.519Z,-0.87
2023-03-04T03:13:18.491Z,-0.85
2023-03-04T03:15:48.451Z,-0.85
2023-03-04T03:18:18.522Z,-0.86
2023-03-04T03:20:47.289Z,-0.90
2023-03-04T03:26:00.394Z,-0.90
2023-03-04T03:28:30.771Z,-0.93
2023-03-04T03:31:01.679Z,-0.96
2023-03-04T03:33:30.223Z,-0.94
2023-03-04T03:35:58.755Z,-0.94
2023-03-04T03:38:27.740Z,-0.93
2023-03-04T03:40:56.538Z,-0.92
2023-03-04T03:43:25.273Z,-0.92
2023-03-04T03:45:55.185Z,-0.93
2023-03-04T03:48:23.707Z,-0.90
2023-03-04T03:50:52.343Z,-0.99
2023-03-04T03:53:20.802Z,-0.99
2023-03-04T03:55:49.110Z,-0.96
2023-03-04T03:58:17.878Z,-0.98
2023-03-04T04:00:46.767Z,-0.99
2023-03-04T04:03:17.715Z,-0.99
2023-03-04T04:05:49.207Z,-1.02
2023-03-04T04:08:18.562Z,-1.08
2023-03-04T04:10:47.040Z,-1.08
2023-03-04T04:13:16.061Z,-1.12
2023-03-04T04:15:44.874Z,-1.14
2023-03-04T04:18:18.359Z,-1.16
2023-03-04T04:20:47.481Z,-1.14
2023-03-04T04:23:17.720Z,-1.14
2023-03-04T04:25:49.374Z,-1.16
2023-03-04T04:28:19.846Z,-1.16
2023-03-04T04:30:48.588Z,-1.16
2023-03-04T04:33:21.357Z,-1.16
2023-03-04T04:35:49.964Z,-1.14
2023-03-04T04:38:18.518Z,-1.16
2023-03-04T04:40:47.250Z,-1.16
2023-03-04T04:43:16.101Z,-1.16
2023-03-04T04:45:45.505Z,-1.12
2023-03-04T04:48:16.626Z,-1.14
2023-03-04T04:50:48.056Z,-1.14
2023-03-04T04:53:19.781Z,-1.15
2023-03-04T04:56:10.791Z,-1.11
2023-03-04T04:58:40.199Z,-1.14
2023-03-04T05:01:09.494Z,-1.19
2023-03-04T05:03:39.319Z,-1.22
2023-03-04T05:06:13.043Z,-1.26
2023-03-04T05:08:41.912Z,-1.31
2023-03-04T05:11:11.049Z,-1.28
2023-03-04T05:13:39.660Z,-1.28
2023-03-04T05:16:09.395Z,-1.28
2023-03-04T05:18:37.981Z,-1.28
2023-03-04T05:21:09.576Z,-1.25
2023-03-04T05:23:41.248Z,-1.27
2023-03-04T05:26:11.611Z,-1.25
2023-03-04T05:28:41.238Z,-1.29
2023-03-04T05:31:10.883Z,-1.26
2023-03-04T05:33:39.955Z,-1.24
2023-03-04T05:36:11.090Z,-1.29
2023-03-04T05:38:39.723Z,-1.29
2023-03-04T05:41:10.016Z,-1.31
2023-03-04T05:43:42.947Z,-1.33
2023-03-04T05:46:17.558Z,-1.33
2023-03-04T05:48:46.495Z,-1.26
2023-03-04T05:51:16.773Z,-1.26
2023-03-04T05:53:45.101Z,-1.23
2023-03-04T05:56:15.623Z,-1.19
2023-03-04T05:58:45.406Z,-1.13
2023-03-04T06:01:14.536Z,-1.04
2023-03-04T06:03:47.912Z,-0.96
2023-03-04T06:06:18.399Z,-0.88
2023-03-04T06:08:47.423Z,-0.78
2023-03-04T06:11:18.561Z,-0.66
2023-03-04T06:13:47.176Z,-0.56
2023-03-04T06:16:15.791Z,-0.48
2023-03-04T06:18:44.546Z,-0.44
2023-03-04T06:21:15.239Z,-0.37
2023-03-04T06:23:45.441Z,-0.29
2023-03-04T06:26:15.926Z,-0.20
2023-03-04T06:28:44.782Z,-0.06
2023-03-04T06:31:13.422Z,0.05
2023-03-04T06:33:41.961Z,0.13
2023-03-04T06:36:10.823Z,0.32
2023-03-04T06:38:39.294Z,0.63
2023-03-04T06:41:13.972Z,0.75
2023-03-04T06:43:48.685Z,0.90
2023-03-04T06:46:17.782Z,1.03
2023-03-04T06:48:48.339Z,1.17
2023-03-04T06:51:17.063Z,1.33
2023-03-04T06:53:45.561Z,1.48
2023-03-04T06:56:17.596Z,1.59
2023-03-04T06:58:46.430Z,1.72
2023-03-04T07:01:16.108Z,1.93
2023-03-04T07:03:47.383Z,2.13
2023-03-04T07:06:18.338Z,2.35
2023-03-04T07:08:48.955Z,2.60
2023-03-04T07:11:47.333Z,2.83
2023-03-04T07:14:16.430Z,2.99
2023-03-04T07:16:45.390Z,3.14
2023-03-04T07:19:14.070Z,3.30
2023-03-04T07:21:42.775Z,3.43
2023-03-04T07:24:11.514Z,3.61
2023-03-04T07:26:40.730Z,3.69
2023-03-04T07:29:11.058Z,3.68
2023-03-04T07:31:40.222Z,3.94
2023-03-04T07:34:12.464Z,4.09
2023-03-04T07:36:41.558Z,4.27
2023-03-04T07:39:13.303Z,4.30
2023-03-04T07:41:42.759Z,4.33
2023-03-04T07:44:13.604Z,4.39
2023-03-04T07:46:42.103Z,4.48
2023-03-04T07:49:13.680Z,4.45
2023-03-04T07:51:42.315Z,4.70
2023-03-04T07:54:11.559Z,4.71
2023-03-04T07:56:42.926Z,4.92
2023-03-04T07:59:15.288Z,5.12
2023-03-04T08:01:46.482Z,5.23
2023-03-04T08:04:15.167Z,5.35
2023-03-04T08:06:44.316Z,5.46
2023-03-04T08:09:13.833Z,5.48
2023-03-04T08:11:43.361Z,5.64
2023-03-04T08:14:15.127Z,5.70
2023-03-04T08:16:43.872Z,5.76
2023-03-04T08:19:16.037Z,5.88
2023-03-04T08:21:45.384Z,6.09
2023-03-04T08:24:14.254Z,6.27
2023-03-04T08:26:44.587Z,6.23
2023-03-04T08:29:16.592Z,6.26
2023-03-04T08:31:48.724Z,6.45
2023-03-04T08:34:18.546Z,6.55
2023-03-04T08:36:47.178Z,6.67
2023-03-04T08:39:17.548Z,6.71
2023-03-04T08:41:46.213Z,6.85
2023-03-04T08:44:21.535Z,7.04
2023-03-04T08:46:50.052Z,7.13
2023-03-04T08:49:18.876Z,7.36
2023-03-04T08:51:47.645Z,7.49
2023-03-04T08:54:16.612Z,7.36
2023-03-04T08:56:45.497Z,7.55
2023-03-04T08:59:14.377Z,7.56
2023-03-04T09:01:44.392Z,7.76
2023-03-04T09:04:12.745Z,7.88
2023-03-04T09:06:41.378Z,8.52
2023-03-04T09:09:10.826Z,9.51
2023-03-04T09:11:39.541Z,11.33
2023-03-04T09:14:10.963Z,13.34
2023-03-04T09:16:41.619Z,13.68
2023-03-04T09:19:11.613Z,13.53
2023-03-04T09:21:40.949Z,13.81
2023-03-04T09:24:09.643Z,12.98
2023-03-04T09:26:38.224Z,11.61
2023-03-04T09:29:06.832Z,10.64
2023-03-04T09:31:35.382Z,10.70
2023-03-04T09:34:04.025Z,12.13
2023-03-04T09:36:34.637Z,11.42
2023-03-04T09:39:03.502Z,9.81
2023-03-04T09:41:38.085Z,9.28
2023-03-04T09:44:14.062Z,9.52
2023-03-04T09:46:44.968Z,9.43
2023-03-04T09:49:14.106Z,9.50
2023-03-04T09:52:04.324Z,10.72
2023-03-04T09:54:46.919Z,12.20
2023-03-04T09:57:28.601Z,13.24
2023-03-04T10:00:08.029Z,13.25
2023-03-04T10:02:44.222Z,13.54
2023-03-04T10:05:18.685Z,12.96
2023-03-04T10:07:51.846Z,11.40
2023-03-04T10:10:28.623Z,11.08
2023-03-04T10:12:59.188Z,11.08
2023-03-04T10:15:39.071Z,10.92
2023-03-04T10:18:14.005Z,10.79
2023-03-04T10:20:50.680Z,9.95
2023-03-04T10:23:24.231Z,10.38
2023-03-04T10:25:54.542Z,10.43
2023-03-04T10:28:26.180Z,10.38
2023-03-04T10:30:59.505Z,10.66
2023-03-04T10:33:30.839Z,12.01
2023-03-04T10:36:05.299Z,14.34
2023-03-04T10:38:37.924Z,15.94
2023-03-04T10:41:14.222Z,15.04
2023-03-04T10:43:45.429Z,15.46
2023-03-04T10:46:14.791Z,15.88
2023-03-04T10:48:45.277Z,16.02
2023-03-04T10:51:18.686Z,17.20
2023-03-04T10:53:50.149Z,15.75
2023-03-04T10:56:33.860Z,15.78
2023-03-04T10:59:34.570Z,15.93
2023-03-04T11:02:08.448Z,16.18
2023-03-04T11:04:41.657Z,14.57
2023-03-04T11:07:13.975Z,15.37
2023-03-04T11:09:46.603Z,15.87
2023-03-04T11:12:19.266Z,18.05
2023-03-04T11:14:49.430Z,19.03
2023-03-04T11:17:21.775Z,18.93
2023-03-04T11:19:57.558Z,18.19
2023-03-04T11:22:27.307Z,17.32
2023-03-04T11:25:05.545Z,17.67
2023-03-04T11:27:40.778Z,18.19
2023-03-04T11:30:31.535Z,16.61
2023-03-04T11:33:18.846Z,16.47
2023-03-04T11:36:11.023Z,16.79
2023-03-04T11:38:43.140Z,15.86
2023-03-04T11:41:19.849Z,13.19
2023-03-04T11:43:49.192Z,12.57
2023-03-04T11:46:44.431Z,10.86
2023-03-04T11:49:51.633Z,11.44
2023-03-04T11:52:29.228Z,11.49
2023-03-04T11:55:07.749Z,11.15
2023-03-04T11:57:42.386Z,12.14
2023-03-04T12:00:31.884Z,12.58
2023-03-04T12:03:30.156Z,13.09
2023-03-04T12:06:04.981Z,12.38
2023-03-04T12:09:09.567Z,12.05
2023-03-04T12:11:44.286Z,11.19
2023-03-04T12:14:23.824Z,11.32
2023-03-04T12:17:25.388Z,11.00
2023-03-04T12:20:06.506Z,10.86
2023-03-04T12:22:43.941Z,10.84
2023-03-04T12:25:46.053Z,11.27
2023-03-04T12:28:43.628Z,11.26
2023-03-04T12:31:26.969Z,10.86
2023-03-04T12:34:05.131Z,10.58
2023-03-04T12:36:37.084Z,10.87
2023-03-04T12:39:20.482Z,11.13
2023-03-04T12:41:52.079Z,11.20
2023-03-04T12:44:22.074Z,11.16
2023-03-04T12:47:11.884Z,11.31
2023-03-04T12:49:49.775Z,11.66
2023-03-04T12:53:09.779Z,10.99
2023-03-04T12:55:39.844Z,10.64
2023-03-04T12:58:15.149Z,11.15
2023-03-04T13:00:50.800Z,10.65
2023-03-04T13:03:25.745Z,10.48
2023-03-04T13:06:05.271Z,10.95
2023-03-04T13:08:43.016Z,11.72
2023-03-04T13:11:47.470Z,12.47
2023-03-04T13:14:30.183Z,11.19
2023-03-04T13:17:02.028Z,11.22
2023-03-04T13:19:51.195Z,11.67
2023-03-04T13:22:31.823Z,11.70
2023-03-04T13:25:01.916Z,10.96
2023-03-04T13:31:29.646Z,11.35
2023-03-04T13:34:02.168Z,12.05
2023-03-04T13:36:35.048Z,12.30
2023-03-04T13:39:13.589Z,11.44
2023-03-04T13:41:48.791Z,11.97
2023-03-04T13:44:54.074Z,11.70
2023-03-04T13:47:26.806Z,11.90
2023-03-04T13:50:34.816Z,11.29
2023-03-04T13:53:41.332Z,11.86
2023-03-04T13:56:22.003Z,12.04
2023-03-04T13:58:51.716Z,11.48
2023-03-04T14:01:27.696Z,10.90
2023-03-04T14:03:56.872Z,11.35
2023-03-04T14:06:27.211Z,12.08
2023-03-04T14:08:58.567Z,12.68
2023-03-04T14:11:31.734Z,12.89
2023-03-04T14:14:01.757Z,13.45
2023-03-04T14:16:33.776Z,12.96
2023-03-04T14:19:07.163Z,14.28
2023-03-04T14:21:39.174Z,15.19
2023-03-04T14:24:13.670Z,15.16
2023-03-04T14:26:42.110Z,15.37
2023-03-04T14:29:26.017Z,16.85
2023-03-04T14:31:55.145Z,17.06
2023-03-04T14:34:27.721Z,15.46
2023-03-04T14:36:57.985Z,15.03
2023-03-04T14:39:37.320Z,16.05
2023-03-04T14:42:10.113Z,15.80
2023-03-04T14:44:39.622Z,16.19
2023-03-04T14:47:13.000Z,17.51
2023-03-04T14:49:41.925Z,18.11
2023-03-04T14:52:28.701Z,17.31
2023-03-04T14:55:06.021Z,17.98
2023-03-04T14:57:35.963Z,18.34
2023-03-04T15:00:19.327Z,17.29
2023-03-04T15:02:51.762Z,17.52
2023-03-04T15:05:30.957Z,16.55
2023-03-04T15:08:01.142Z,15.17
2023-03-04T15:10:33.253Z,14.80
2023-03-04T15:13:05.364Z,13.73
2023-03-04T15:15:51.880Z,14.72
2023-03-04T15:18:26.524Z,14.95
2023-03-04T15:21:00.133Z,15.39
2023-03-04T15:23:29.301Z,14.68
2023-03-04T15:26:01.982Z,14.17
2023-03-04T15:28:33.906Z,14.27
2023-03-04T15:31:02.668Z,13.70
2023-03-04T15:33:31.527Z,13.17
2023-03-04T15:36:01.879Z,12.67
2023-03-04T15:38:31.088Z,11.83
2023-03-04T15:41:03.799Z,11.18
2023-03-04T15:43:32.334Z,10.66
2023-03-04T15:46:01.282Z,10.44
2023-03-04T15:48:32.905Z,10.65
2023-03-04T15:51:03.210Z,10.03
2023-03-04T15:53:34.575Z,9.88
2023-03-04T15:56:06.368Z,9.56
2023-03-04T15:58:35.409Z,9.51
2023-03-04T16:01:04.557Z,9.70
2023-03-04T16:03:36.388Z,9.23
2023-03-04T16:06:05.321Z,9.13
2023-03-04T16:08:34.171Z,9.03
2023-03-04T16:11:02.943Z,8.84
2023-03-04T16:13:34.896Z,8.60
2023-03-04T16:16:04.085Z,8.13
2023-03-04T16:18:32.946Z,7.99
2023-03-04T16:21:01.705Z,7.97
2023-03-04T16:23:30.154Z,7.66
2023-03-04T16:25:59.011Z,7.29
2023-03-04T16:28:36.651Z,6.93
2023-03-04T16:31:05.669Z,6.88
2023-03-04T16:33:34.337Z,6.85
2023-03-04T16:36:05.301Z,6.73
2023-03-04T16:38:35.017Z,6.34
2023-03-04T16:41:03.882Z,6.27
2023-03-04T16:43:32.606Z,6.29
2023-03-04T16:46:02.665Z,6.34
2023-03-04T16:48:31.757Z,6.30
2023-03-04T16:51:00.518Z,6.13
2023-03-04T16:53:33.115Z,6.05
2023-03-04T16:56:04.647Z,5.94
2023-03-04T16:58:33.974Z,5.80
2023-03-04T17:01:04.443Z,5.70
2023-03-04T17:03:33.470Z,5.57
2023-03-04T17:06:01.942Z,5.58
2023-03-04T17:08:30.996Z,5.46
2023-03-04T17:10:59.794Z,5.44
2023-03-04T17:13:28.817Z,5.35
2023-03-04T17:16:02.117Z,5.27
2023-03-04T17:18:32.483Z,5.22
2023-03-04T17:21:06.181Z,5.15
2023-03-04T17:23:39.475Z,5.18
2023-03-04T17:26:09.505Z,5.01
2023-03-04T17:28:39.224Z,4.99
2023-03-04T17:31:12.982Z,4.91
2023-03-04T17:33:44.001Z,4.83
2023-03-04T17:36:14.291Z,4.56
2023-03-04T17:38:43.632Z,4.63
2023-03-04T17:41:18.857Z,4.61
2023-03-04T17:43:49.381Z,4.53
2023-03-04T17:46:19.420Z,4.59
2023-03-04T17:48:50.530Z,4.49
2023-03-04T17:51:19.204Z,4.51
2023-03-04T17:53:47.896Z,4.48
2023-03-04T17:56:17.186Z,4.38
2023-03-04T17:58:46.851Z,4.28
2023-03-04T18:01:19.186Z,4.21
2023-03-04T18:03:53.072Z,4.17
2023-03-04T18:06:22.911Z,4.10
2023-03-04T18:08:51.904Z,3.96
2023-03-04T18:11:21.567Z,3.85
2023-03-04T18:13:50.499Z,3.82
2023-03-04T18:16:23.635Z,3.58
2023-03-04T18:18:55.436Z,3.82
2023-03-04T18:21:23.970Z,3.73
2023-03-04T18:23:52.993Z,3.69
2023-03-04T18:26:23.809Z,3.68
2023-03-04T18:28:52.781Z,3.67
2023-03-04T18:31:23.162Z,3.56
2023-03-04T18:33:51.750Z,3.30
2023-03-04T18:36:22.536Z,3.12
2023-03-04T18:38:53.942Z,3.10
2023-03-04T18:41:27.476Z,2.94
2023-03-04T18:44:02.489Z,2.89
2023-03-04T18:46:34.741Z,2.79
2023-03-04T18:49:05.314Z,2.71
2023-03-04T18:51:35.308Z,2.60
2023-03-04T18:54:04.318Z,2.59
2023-03-04T18:56:38.012Z,2.55
2023-03-04T18:59:10.016Z,2.52
2023-03-04T19:01:42.824Z,2.52
2023-03-04T19:04:11.758Z,2.47
2023-03-04T19:06:41.990Z,2.41
2023-03-04T19:09:10.570Z,2.42
2023-03-04T19:11:39.682Z,2.36
2023-03-04T19:14:09.573Z,2.31
2023-03-04T19:16:38.902Z,2.22
2023-03-04T19:19:07.554Z,2.07
2023-03-04T19:21:43.628Z,1.99
2023-03-04T19:24:12.911Z,1.92
2023-03-04T19:26:41.447Z,1.86
2023-03-04T19:29:10.047Z,1.84
2023-03-04T19:31:41.349Z,1.83
2023-03-04T19:34:11.909Z,1.84
2023-03-04T19:36:44.737Z,1.83
2023-03-04T19:39:15.982Z,1.78
2023-03-04T19:41:45.026Z,1.77
2023-03-04T19:44:16.349Z,1.73
2023-03-04T19:46:45.323Z,1.66
2023-03-04T19:49:16.987Z,1.65
2023-03-04T19:51:52.798Z,1.63
2023-03-04T19:54:24.304Z,1.55
2023-03-04T19:56:53.782Z,1.42
2023-03-04T19:59:22.833Z,1.39
2023-03-04T20:01:54.269Z,1.34
2023-03-04T20:04:23.520Z,1.31
2023-03-04T20:06:54.095Z,1.22
2023-03-04T20:09:23.139Z,1.18
2023-03-04T20:11:58.526Z,1.18
2023-03-04T20:14:28.930Z,1.23
2023-03-04T20:17:01.144Z,1.25
2023-03-04T20:19:30.779Z,1.21
2023-03-04T20:22:06.078Z,1.21
2023-03-04T20:24:35.023Z,1.17
2023-03-04T20:27:04.247Z,1.19
2023-03-04T20:29:36.416Z,1.24
2023-03-04T20:32:10.126Z,1.23
2023-03-04T20:34:38.546Z,1.32
2023-03-04T20:37:08.716Z,1.37
2023-03-04T20:39:37.202Z,1.37
2023-03-04T20:42:06.954Z,1.37
2023-03-04T20:44:36.349Z,1.33
2023-03-04T20:47:07.928Z,1.34
2023-03-04T20:49:36.368Z,1.34
2023-03-04T20:52:06.803Z,1.33
2023-03-04T20:54:38.907Z,1.32
2023-03-04T20:57:11.148Z,1.30
2023-03-04T20:59:41.119Z,1.24
2023-03-04T21:02:12.089Z,1.36
2023-03-04T21:04:40.880Z,1.34
2023-03-04T21:07:09.626Z,1.26
2023-03-04T21:09:40.253Z,1.31
2023-03-04T21:12:11.865Z,1.32
2023-03-04T21:14:45.295Z,1.35
2023-03-04T21:17:14.621Z,1.41
2023-03-04T21:19:43.681Z,1.40
2023-03-04T21:22:18.130Z,1.35
2023-03-04T21:24:48.946Z,1.28
2023-03-04T21:27:18.180Z,1.29
2023-03-04T21:29:47.152Z,1.24
2023-03-04T21:32:24.722Z,1.15
2023-03-04T21:34:54.817Z,1.05
2023-03-04T21:37:27.642Z,1.05
2023-03-04T21:39:58.415Z,1.00
2023-03-04T21:42:27.780Z,1.02
2023-03-04T21:44:56.172Z,1.03
2023-03-04T21:47:24.964Z,0.83
2023-03-04T21:49:54.249Z,0.82
2023-03-04T21:52:26.272Z,0.71
2023-03-04T21:54:56.189Z,0.75
2023-03-04T21:57:29.140Z,0.81
2023-03-04T21:59:57.822Z,0.83
2023-03-04T22:02:26.478Z,0.78
2023-03-04T22:04:55.378Z,0.72
2023-03-04T22:07:24.074Z,0.73
2023-03-04T22:09:54.478Z,0.69
2023-03-04T22:12:23.434Z,0.73
2023-03-04T22:14:53.659Z,0.77
2023-03-04T22:17:23.784Z,0.74
2023-03-04T22:19:52.457Z,0.68
2023-03-04T22:22:21.354Z,0.66
2023-03-04T22:24:50.071Z,0.62
2023-03-04T22:27:19.229Z,0.56
2023-03-04T22:29:47.626Z,0.61
2023-03-04T22:32:18.366Z,0.54
2023-03-04T22:34:47.028Z,0.42
2023-03-04T22:37:15.710Z,0.58
2023-03-04T22:39:44.264Z,0.54
2023-03-04T22:42:15.734Z,0.56
2023-03-04T22:44:44.979Z,0.65
2023-03-04T22:47:13.881Z,0.69
2023-03-04T22:49:47.815Z,0.64
2023-03-04T22:52:16.986Z,0.55
2023-03-04T22:54:46.654Z,0.65
2023-03-04T22:57:17.741Z,0.42
2023-03-04T22:59:47.153Z,0.52
2023-03-04T23:02:19.379Z,0.38
2023-03-04T23:04:49.542Z,0.44
2023-03-04T23:07:18.113Z,0.43
2023-03-04T23:09:46.875Z,0.39
2023-03-04T23:12:16.865Z,0.45
2023-03-04T23:14:46.002Z,0.40
2023-03-04T23:17:15.354Z,0.42
2023-03-04T23:19:44.324Z,0.30
2023-03-04T23:22:14.555Z,0.41
2023-03-04T23:24:45.237Z,0.45
2023-03-04T23:27:14.519Z,0.38
2023-03-04T23:29:45.950Z,0.46
2023-03-04T23:32:14.522Z,0.57
2023-03-04T23:34:43.117Z,0.54
2023-03-04T23:37:18.307Z,0.47
2023-03-04T23:39:46.736Z,0.48
2023-03-04T23:42:15.705Z,0.58
2023-03-04T23:44:44.582Z,0.47
2023-03-04T23:47:13.163Z,0.49
2023-03-04T23:49:41.990Z,0.51
2023-03-04T23:52:10.966Z,0.69
2023-03-04T23:54:47.366Z,0.59
2023-03-04T23:57:16.278Z,0.53
2023-03-04T23:59:45.195Z,0.52
